Time;durP1;ratioP1;P1;durP2;ratioP2;P2;SDS_P1;SDS_P2;PMS_P1;PMS_P2;Temp;Humidity;BMP_temperature;BMP_pressure;BME280_temperature;BME280_humidity;BME280_pressure;Samples;Min_cycle;Max_cycle;Signal;HPM_P1;HPM_P2
2022/04/29 00:02:14;;;;;;;9.57;7.83;;;14.20;60.00;;;;;;5102135;28;20479;-66
2022/04/29 00:04:42;;;;;;;9.03;8.00;;;14.10;60.10;;;;;;5102307;28;20501;-66
2022/04/29 00:07:09;;;;;;;11.07;8.17;;;14.10;60.40;;;;;;5102353;28;20951;-66
2022/04/29 00:09:38;;;;;;;8.47;7.67;;;14.20;60.90;;;;;;5102317;28;20454;-67
2022/04/29 00:12:07;;;;;;;12.37;8.50;;;14.10;60.90;;;;;;5102429;28;20456;-66
2022/04/29 00:14:35;;;;;;;11.70;8.73;;;14.10;61.20;;;;;;5102795;28;20905;-66
2022/04/29 00:17:05;;;;;;;9.97;9.03;;;14.20;61.40;;;;;;5102653;28;20447;-66
2022/04/29 00:19:32;;;;;;;9.83;8.70;;;14.20;61.60;;;;;;5102088;28;20922;-67
2022/04/29 00:21:59;;;;;;;11.93;8.90;;;14.20;61.90;;;;;;5102367;28;20471;-67
2022/04/29 00:24:26;;;;;;;11.50;9.63;;;14.20;62.80;;;;;;5102679;28;20450;-66
2022/04/29 00:26:54;;;;;;;9.63;8.73;;;14.20;61.80;;;;;;5102526;28;20492;-66
2022/04/29 00:29:21;;;;;;;14.60;9.77;;;14.20;61.60;;;;;;5101942;28;20472;-66
2022/04/29 00:31:50;;;;;;;10.70;9.70;;;14.20;61.60;;;;;;5102044;28;20475;-66
2022/04/29 00:34:16;;;;;;;11.10;9.20;;;14.20;61.50;;;;;;5101882;28;20866;-66
2022/04/29 00:36:43;;;;;;;13.20;9.43;;;14.20;61.50;;;;;;5101892;28;20981;-66
2022/04/29 00:39:10;;;;;;;12.03;9.30;;;14.20;61.60;;;;;;5101777;28;20459;-67
2022/04/29 00:41:37;;;;;;;12.40;10.13;;;14.20;61.90;;;;;;5102195;28;20473;-66
2022/04/29 00:44:06;;;;;;;12.63;9.80;;;14.20;61.80;;;;;;5101863;28;20458;-66
2022/04/29 00:46:37;;;;;;;9.70;8.80;;;14.20;61.60;;;;;;5102759;28;20483;-66
2022/04/29 00:49:08;;;;;;;10.77;9.40;;;14.10;61.60;;;;;;5102055;28;20448;-66
2022/04/29 00:51:35;;;;;;;10.70;9.60;;;14.10;62.00;;;;;;5095289;28;21017;-66
2022/04/29 00:54:04;;;;;;;11.00;8.70;;;14.10;62.10;;;;;;5081458;28;20460;-66
2022/04/29 00:56:32;;;;;;;11.30;8.83;;;14.00;62.10;;;;;;5080758;28;20449;-66
2022/04/29 00:59:02;;;;;;;12.07;8.50;;;13.90;62.10;;;;;;5080309;28;20441;-66
2022/04/29 01:01:32;;;;;;;11.87;8.27;;;13.90;62.00;;;;;;5080261;28;20472;-67
2022/04/29 01:04:01;;;;;;;10.23;9.00;;;13.70;62.10;;;;;;5080570;28;20457;-67
2022/04/29 01:06:29;;;;;;;9.73;8.50;;;13.70;62.30;;;;;;5080563;28;20534;-67
2022/04/29 01:08:56;;;;;;;15.77;10.20;;;13.70;62.80;;;;;;5080465;28;20480;-67
2022/04/29 01:11:24;;;;;;;9.47;8.47;;;13.60;63.00;;;;;;5080387;28;20468;-67
2022/04/29 01:13:53;;;;;;;10.03;8.80;;;13.60;63.30;;;;;;5081619;28;20449;-66
2022/04/29 01:16:20;;;;;;;10.30;9.30;;;13.50;63.40;;;;;;5081334;28;20445;-66
2022/04/29 01:18:48;;;;;;;11.27;10.07;;;13.50;63.90;;;;;;5080515;28;20437;-66
2022/04/29 01:21:15;;;;;;;15.23;9.50;;;13.50;64.30;;;;;;5081682;28;20479;-66
2022/04/29 01:23:43;;;;;;;11.70;10.03;;;13.40;64.60;;;;;;5081403;28;20449;-67
2022/04/29 01:26:14;;;;;;;15.33;10.77;;;13.40;65.00;;;;;;5080932;28;20480;-68
2022/04/29 01:28:44;;;;;;;16.03;12.50;;;13.30;65.30;;;;;;5081118;28;20456;-67
2022/04/29 01:31:13;;;;;;;11.87;10.67;;;13.20;65.60;;;;;;5080697;28;20522;-66
2022/04/29 01:33:42;;;;;;;10.67;9.57;;;13.20;66.10;;;;;;5080772;28;20452;-67
2022/04/29 01:36:09;;;;;;;15.17;10.90;;;13.20;66.50;;;;;;5080830;28;20483;-67
2022/04/29 01:38:36;;;;;;;14.80;10.90;;;13.10;66.70;;;;;;5081181;28;20806;-67
2022/04/29 01:41:05;;;;;;;16.40;10.77;;;13.10;67.20;;;;;;5079279;28;20473;-65
2022/04/29 01:43:32;;;;;;;12.73;10.13;;;13.10;67.50;;;;;;5080301;28;20513;-67
2022/04/29 01:45:59;;;;;;;12.33;10.37;;;13.10;67.80;;;;;;5080404;28;20488;-67
2022/04/29 01:48:26;;;;;;;19.00;10.63;;;13.10;67.90;;;;;;5080548;28;20461;-66
2022/04/29 01:50:53;;;;;;;12.20;10.83;;;13.10;68.20;;;;;;5080105;28;20475;-65
2022/04/29 01:53:20;;;;;;;15.90;10.33;;;13.10;68.40;;;;;;5080584;28;20449;-66
2022/04/29 01:55:47;;;;;;;11.63;10.43;;;13.10;68.70;;;;;;5080284;28;20444;-66
2022/04/29 01:58:15;;;;;;;13.70;10.90;;;13.10;68.70;;;;;;5080343;28;20453;-65
2022/04/29 02:00:42;;;;;;;12.23;10.80;;;13.10;69.60;;;;;;5080119;28;20433;-67
2022/04/29 02:03:09;;;;;;;17.57;10.27;;;13.10;69.00;;;;;;5080114;28;20460;-66
2022/04/29 02:05:36;;;;;;;13.57;11.03;;;13.10;69.30;;;;;;5079365;28;21080;-66
2022/04/29 02:08:02;;;;;;;15.10;11.40;;;13.10;69.40;;;;;;5079637;28;20453;-66
2022/04/29 02:10:29;;;;;;;13.87;11.10;;;13.10;69.50;;;;;;5079430;28;20451;-67
2022/04/29 02:12:56;;;;;;;13.50;11.70;;;13.10;69.70;;;;;;5079598;28;20445;-66
2022/04/29 02:15:24;;;;;;;12.33;11.07;;;13.10;70.00;;;;;;5079721;28;20480;-67
2022/04/29 02:17:51;;;;;;;12.77;11.23;;;13.10;70.20;;;;;;5079704;28;20448;-66
2022/04/29 02:20:18;;;;;;;17.50;12.33;;;13.20;70.70;;;;;;5079704;28;20448;-67
2022/04/29 02:22:45;;;;;;;15.37;13.27;;;13.10;70.70;;;;;;5078894;28;20975;-66
2022/04/29 02:25:12;;;;;;;18.73;13.20;;;13.10;70.90;;;;;;5079597;28;20943;-67
2022/04/29 02:27:39;;;;;;;14.33;12.70;;;13.10;71.30;;;;;;5079920;28;20461;-66
2022/04/29 02:30:07;;;;;;;14.83;12.13;;;13.20;71.70;;;;;;5083829;28;20440;-66
2022/04/29 02:32:35;;;;;;;16.43;14.63;;;13.20;71.90;;;;;;5095407;28;20464;-67
2022/04/29 02:35:02;;;;;;;17.17;13.30;;;13.20;72.10;;;;;;5096042;28;20429;-66
2022/04/29 02:37:28;;;;;;;15.20;13.30;;;13.20;72.00;;;;;;5080338;28;20927;-66
2022/04/29 02:39:55;;;;;;;15.33;13.83;;;13.20;72.10;;;;;;5081019;28;20449;-66
2022/04/29 02:42:22;;;;;;;14.50;12.40;;;13.20;72.00;;;;;;5080414;28;20481;-66
2022/04/29 02:44:49;;;;;;;17.80;14.73;;;13.20;72.30;;;;;;5079534;28;20464;-66
2022/04/29 02:47:15;;;;;;;15.23;13.73;;;13.20;72.50;;;;;;5079271;28;20487;-66
2022/04/29 02:49:45;;;;;;;16.80;14.67;;;13.20;72.70;;;;;;5078828;28;20444;-66
2022/04/29 02:52:13;;;;;;;14.97;13.33;;;13.20;72.80;;;;;;5082052;28;20464;-66
2022/04/29 02:54:40;;;;;;;22.60;15.13;;;13.20;73.10;;;;;;5082928;28;20452;-66
2022/04/29 02:57:08;;;;;;;18.23;14.20;;;13.10;73.20;;;;;;5082430;28;20445;-66
2022/04/29 02:59:34;;;;;;;17.33;15.50;;;13.10;73.50;;;;;;5083290;28;20452;-66
2022/04/29 03:02:01;;;;;;;16.20;14.50;;;13.10;74.20;;;;;;5082951;28;20479;-66
2022/04/29 03:04:28;;;;;;;20.33;14.93;;;13.10;74.40;;;;;;5082395;28;20455;-66
2022/04/29 03:06:56;;;;;;;17.73;14.67;;;13.10;74.60;;;;;;5082350;28;20479;-66
2022/04/29 03:09:24;;;;;;;19.93;15.17;;;13.10;74.70;;;;;;5082415;28;20456;-66
2022/04/29 03:11:51;;;;;;;20.07;15.47;;;13.00;75.00;;;;;;5082481;28;20475;-66
2022/04/29 03:14:17;;;;;;;15.93;14.33;;;13.00;75.40;;;;;;5083013;28;20449;-66
2022/04/29 03:16:44;;;;;;;18.23;15.40;;;13.00;75.60;;;;;;5082442;28;20445;-66
2022/04/29 03:19:11;;;;;;;16.30;14.80;;;13.00;75.70;;;;;;5082956;28;20451;-66
2022/04/29 03:21:38;;;;;;;16.97;14.80;;;13.00;76.00;;;;;;5082605;28;20468;-67
2022/04/29 03:24:07;;;;;;;17.93;16.23;;;13.00;76.00;;;;;;5083131;28;20456;-66
2022/04/29 03:26:35;;;;;;;17.80;15.90;;;13.00;76.10;;;;;;5092708;28;20545;-66
2022/04/29 03:29:02;;;;;;;17.97;16.13;;;13.00;76.30;;;;;;5083831;28;20987;-66
2022/04/29 03:31:30;;;;;;;18.10;16.20;;;12.90;76.40;;;;;;5083543;28;20539;-67
2022/04/29 03:33:56;;;;;;;16.73;15.00;;;12.90;76.60;;;;;;5083053;28;20456;-66
2022/04/29 03:36:23;;;;;;;19.87;16.10;;;12.90;76.70;;;;;;5082802;28;20445;-66
2022/04/29 03:38:50;;;;;;;22.43;15.63;;;13.00;76.90;;;;;;5083073;28;20448;-66
2022/04/29 03:41:19;;;;;;;18.27;16.20;;;12.90;76.80;;;;;;5082159;28;20476;-66
2022/04/29 03:43:46;;;;;;;17.67;15.77;;;12.90;76.80;;;;;;5082801;28;20463;-66
2022/04/29 03:46:12;;;;;;;18.80;15.57;;;12.90;77.00;;;;;;5082276;28;20496;-66
2022/04/29 03:51:23;;;;;;;19.93;16.90;;;12.90;77.30;;;;;;5082302;28;20479;-66
2022/04/29 03:53:50;;;;;;;17.77;15.90;;;12.80;77.00;;;;;;5081662;28;20448;-66
2022/04/29 03:56:19;;;;;;;18.87;16.87;;;12.80;77.20;;;;;;5082336;28;20444;-66
2022/04/29 03:58:45;;;;;;;18.10;16.30;;;12.80;77.30;;;;;;5083026;28;20798;-66
2022/04/29 04:01:13;;;;;;;20.13;15.77;;;12.80;77.60;;;;;;5082232;28;20468;-66
2022/04/29 04:03:40;;;;;;;18.80;16.87;;;12.80;77.70;;;;;;5080629;28;20445;-66
2022/04/29 04:08:51;;;;;;;20.37;16.97;;;12.70;77.60;;;;;;5082407;28;20494;-66
2022/04/29 04:11:19;;;;;;;21.97;16.73;;;12.70;77.70;;;;;;5082328;28;21019;-65
2022/04/29 04:13:46;;;;;;;19.27;17.00;;;12.70;77.80;;;;;;5081805;28;20459;-66
2022/04/29 04:16:13;;;;;;;19.10;15.67;;;12.60;77.70;;;;;;5081598;28;20444;-66
2022/04/29 04:18:39;;;;;;;23.70;16.73;;;12.60;77.80;;;;;;5082164;28;20452;-66
2022/04/29 04:21:06;;;;;;;18.60;16.53;;;12.60;78.10;;;;;;5081769;28;20481;-66
2022/04/29 04:23:33;;;;;;;19.70;16.67;;;12.60;78.20;;;;;;5081894;28;20449;-67
2022/04/29 04:26:00;;;;;;;20.27;17.00;;;12.60;78.30;;;;;;5081176;28;20908;-67
2022/04/29 04:28:28;;;;;;;21.10;17.57;;;12.50;78.40;;;;;;5082595;28;20441;-67
2022/04/29 04:30:55;;;;;;;21.07;17.17;;;12.50;78.60;;;;;;5081424;28;20526;-66
2022/04/29 04:33:22;;;;;;;22.53;17.23;;;12.50;78.70;;;;;;5081348;28;20445;-66
2022/04/29 04:35:49;;;;;;;19.50;17.37;;;12.60;79.10;;;;;;5080190;28;20453;-66
2022/04/29 04:38:15;;;;;;;19.07;15.97;;;12.50;79.20;;;;;;5074744;28;20448;-66
2022/04/29 04:40:43;;;;;;;19.20;17.17;;;12.50;79.30;;;;;;5074343;28;20441;-67
2022/04/29 04:43:10;;;;;;;28.30;16.33;;;12.50;79.40;;;;;;5074306;28;20971;-67
2022/04/29 04:45:38;;;;;;;19.30;17.20;;;12.60;79.70;;;;;;5074778;28;20444;-67
2022/04/29 04:48:06;;;;;;;20.60;17.60;;;12.50;79.70;;;;;;5074080;28;20841;-67
2022/04/29 04:50:33;;;;;;;22.90;17.10;;;12.50;79.80;;;;;;5074161;28;20955;-67
2022/04/29 04:52:59;;;;;;;25.40;17.30;;;12.40;79.80;;;;;;5074622;28;20460;-67
2022/04/29 04:55:26;;;;;;;24.33;17.23;;;12.40;80.10;;;;;;5074497;28;20464;-67
2022/04/29 04:57:53;;;;;;;23.30;18.77;;;12.50;80.20;;;;;;5074267;28;20502;-67
2022/04/29 05:00:20;;;;;;;18.03;16.23;;;12.50;80.50;;;;;;5074380;28;20456;-67
2022/04/29 05:02:48;;;;;;;19.77;17.63;;;12.50;80.60;;;;;;5074317;28;20461;-67
2022/04/29 05:05:15;;;;;;;18.63;16.53;;;12.50;80.70;;;;;;5073930;28;20453;-67
2022/04/29 05:07:42;;;;;;;21.63;18.03;;;12.50;80.90;;;;;;5074108;28;20480;-67
2022/04/29 05:10:10;;;;;;;21.20;15.87;;;12.60;81.00;;;;;;5073922;28;20935;-70
2022/04/29 05:12:43;;;;;;;21.87;15.50;;;12.60;81.20;;;;;;5073625;28;20476;-67
2022/04/29 05:15:11;;;;;;;19.90;15.43;;;12.70;81.40;;;;;;5073764;28;20974;-66
2022/04/29 05:17:39;;;;;;;17.27;15.57;;;12.70;81.50;;;;;;5074053;28;20444;-66
2022/04/29 05:20:09;;;;;;;16.30;14.70;;;12.80;81.70;;;;;;5073883;28;20448;-66
2022/04/29 05:22:35;;;;;;;18.23;16.10;;;12.90;81.70;;;;;;5073521;28;20975;-66
2022/04/29 05:25:02;;;;;;;19.97;15.00;;;12.90;81.60;;;;;;5073529;28;20949;-66
2022/04/29 05:27:29;;;;;;;22.43;16.57;;;13.00;81.70;;;;;;5073808;28;20479;-66
2022/04/29 05:29:57;;;;;;;17.17;13.97;;;13.10;81.60;;;;;;5073847;28;20453;-66
2022/04/29 05:32:25;;;;;;;17.47;15.33;;;13.20;81.60;;;;;;5073784;28;20487;-66
2022/04/29 05:34:52;;;;;;;19.60;15.43;;;13.20;81.40;;;;;;5073749;28;20453;-66
2022/04/29 05:37:21;;;;;;;21.50;14.87;;;13.30;81.10;;;;;;5073713;28;20448;-66
2022/04/29 05:42:32;;;;;;;19.17;15.33;;;13.40;80.60;;;;;;5073747;28;20534;-68
2022/04/29 05:45:01;;;;;;;16.47;14.27;;;13.50;80.10;;;;;;5073313;28;20468;-67
2022/04/29 05:47:28;;;;;;;19.30;14.83;;;13.50;80.00;;;;;;5073541;28;20866;-67
2022/04/29 05:49:54;;;;;;;17.17;15.27;;;13.50;79.80;;;;;;5073471;28;20459;-67
2022/04/29 05:52:23;;;;;;;19.73;14.73;;;13.60;79.60;;;;;;5073200;28;20476;-67
2022/04/29 05:54:49;;;;;;;20.60;17.00;;;13.60;79.50;;;;;;5073210;28;20445;-67
2022/04/29 05:57:16;;;;;;;17.53;15.20;;;13.70;79.10;;;;;;5073484;28;20441;-67
2022/04/29 05:59:43;;;;;;;17.30;14.90;;;13.70;78.90;;;;;;5073316;28;20444;-67
2022/04/29 06:02:10;;;;;;;19.33;14.20;;;13.70;78.60;;;;;;5073839;28;20468;-67
2022/04/29 06:04:36;;;;;;;16.60;14.90;;;13.70;78.70;;;;;;5073361;28;20464;-67
2022/04/29 06:07:04;;;;;;;14.83;13.30;;;13.80;78.80;;;;;;5073148;28;20484;-67
2022/04/29 06:09:32;;;;;;;16.20;14.43;;;13.80;79.20;;;;;;5073570;28;20452;-67
2022/04/29 06:11:58;;;;;;;16.50;13.50;;;13.90;79.30;;;;;;5073566;28;20487;-67
2022/04/29 06:14:25;;;;;;;16.20;14.17;;;14.00;79.20;;;;;;5073491;28;20452;-67
2022/04/29 06:16:52;;;;;;;14.60;13.23;;;14.10;79.00;;;;;;5074130;28;20445;-67
2022/04/29 06:19:18;;;;;;;19.77;14.50;;;14.20;78.70;;;;;;5073362;28;20452;-66
2022/04/29 06:21:45;;;;;;;15.30;13.80;;;14.10;77.50;;;;;;5073136;28;20838;-67
2022/04/29 06:24:12;;;;;;;16.40;14.40;;;14.10;77.30;;;;;;5073022;28;20452;-67
2022/04/29 06:26:40;;;;;;;14.30;12.77;;;14.20;78.10;;;;;;5075067;28;20453;-67
2022/04/29 06:29:07;;;;;;;15.30;12.27;;;14.20;77.90;;;;;;5077488;28;20849;-67
2022/04/29 06:31:33;;;;;;;15.70;13.80;;;14.30;77.30;;;;;;5077428;28;20464;-67
2022/04/29 06:34:00;;;;;;;12.40;10.97;;;14.30;77.10;;;;;;5077498;28;20824;-67
2022/04/29 06:36:27;;;;;;;16.17;12.80;;;14.30;76.80;;;;;;5077536;28;20451;-66
2022/04/29 06:38:54;;;;;;;15.77;12.93;;;14.40;76.80;;;;;;5077350;28;20461;-67
2022/04/29 06:41:20;;;;;;;13.33;11.97;;;14.50;76.20;;;;;;5077145;28;20468;-68
2022/04/29 06:43:48;;;;;;;16.63;13.67;;;14.50;76.10;;;;;;5077063;28;20967;-68
2022/04/29 06:46:17;;;;;;;14.63;13.00;;;14.60;75.60;;;;;;5077360;28;20457;-67
2022/04/29 06:48:45;;;;;;;16.67;13.20;;;14.60;75.10;;;;;;5077019;28;21015;-66
2022/04/29 06:51:12;;;;;;;16.20;11.87;;;14.60;74.00;;;;;;5077085;28;20464;-67
2022/04/29 06:53:40;;;;;;;16.70;12.30;;;14.50;74.00;;;;;;5076622;28;20448;-67
2022/04/29 06:56:07;;;;;;;15.00;11.77;;;14.50;74.40;;;;;;5076480;28;20967;-67
2022/04/29 06:58:34;;;;;;;12.43;11.10;;;14.60;74.60;;;;;;5076929;28;20448;-67
2022/04/29 07:01:02;;;;;;;14.33;11.90;;;14.70;74.60;;;;;;5076523;28;20472;-67
2022/04/29 07:03:29;;;;;;;18.73;13.67;;;14.80;74.00;;;;;;5076575;28;20546;-67
2022/04/29 07:05:58;;;;;;;14.47;11.37;;;14.80;73.80;;;;;;5076161;28;20908;-67
2022/04/29 07:08:25;;;;;;;12.57;10.93;;;14.90;73.60;;;;;;5076527;28;20492;-67
2022/04/29 07:10:52;;;;;;;17.50;11.73;;;15.00;73.30;;;;;;5076590;28;20460;-67
2022/04/29 07:13:19;;;;;;;13.87;10.63;;;15.00;73.80;;;;;;5076282;28;20452;-67
2022/04/29 07:15:48;;;;;;;14.40;12.33;;;15.10;73.20;;;;;;5076308;28;20452;-67
2022/04/29 07:18:17;;;;;;;15.23;12.23;;;15.10;73.00;;;;;;5076613;28;20535;-67
2022/04/29 07:20:44;;;;;;;16.47;12.60;;;15.10;73.10;;;;;;5076421;28;20480;-67
2022/04/29 07:23:11;;;;;;;13.53;12.13;;;15.20;73.00;;;;;;5076204;28;20459;-67
2022/04/29 07:25:37;;;;;;;14.17;12.07;;;15.20;72.70;;;;;;5076067;28;20825;-67
2022/04/29 07:28:05;;;;;;;10.87;9.87;;;15.30;72.40;;;;;;5075897;28;20469;-67
2022/04/29 07:30:32;;;;;;;15.07;12.50;;;15.30;71.80;;;;;;5076249;28;20970;-68
2022/04/29 07:32:58;;;;;;;16.67;11.93;;;15.40;71.70;;;;;;5076111;28;20449;-68
2022/04/29 07:43:40;;;;;;;12.47;11.27;;;15.60;70.80;;;;;;5075697;28;20962;-67
2022/04/29 07:46:10;;;;;;;14.83;11.90;;;15.80;69.80;;;;;;5075593;28;21026;-67
2022/04/29 07:48:37;;;;;;;19.00;12.87;;;15.80;70.00;;;;;;5075701;28;20473;-67
2022/04/29 07:51:06;;;;;;;14.57;11.23;;;15.90;69.60;;;;;;5075402;28;20989;-67
2022/04/29 07:53:34;;;;;;;14.93;12.50;;;15.90;68.90;;;;;;5075860;28;20541;-68
2022/04/29 07:56:01;;;;;;;15.27;12.00;;;15.70;67.60;;;;;;5075264;28;20940;-68
2022/04/29 07:58:28;;;;;;;16.73;11.93;;;15.60;68.10;;;;;;5075690;28;20558;-68
2022/04/29 08:00:55;;;;;;;19.80;13.47;;;15.60;68.70;;;;;;5075590;28;20555;-68
2022/04/29 08:03:22;;;;;;;14.37;12.60;;;15.60;68.60;;;;;;5075466;28;20444;-66
2022/04/29 08:05:49;;;;;;;15.50;11.80;;;15.60;68.50;;;;;;5075322;28;20449;-66
2022/04/29 08:08:17;;;;;;;15.20;11.70;;;15.60;68.60;;;;;;5075422;28;20484;-66
2022/04/29 08:10:44;;;;;;;16.63;13.30;;;15.70;68.90;;;;;;5075296;28;20448;-66
2022/04/29 08:13:11;;;;;;;13.10;11.80;;;15.70;68.00;;;;;;5075353;28;20453;-66
2022/04/29 08:15:43;;;;;;;13.70;12.30;;;15.80;68.20;;;;;;5075317;28;20481;-65
2022/04/29 08:18:10;;;;;;;13.20;10.20;;;15.80;67.50;;;;;;5075385;28;20433;-65
2022/04/29 08:20:36;;;;;;;12.30;10.83;;;15.80;67.10;;;;;;5075091;28;20813;-66
2022/04/29 08:23:03;;;;;;;15.13;11.87;;;15.90;67.40;;;;;;5075306;28;20440;-66
2022/04/29 08:25:31;;;;;;;17.47;12.73;;;16.00;66.40;;;;;;5075197;28;20447;-66
2022/04/29 08:28:00;;;;;;;15.00;11.00;;;16.00;66.60;;;;;;5075007;28;20499;-66
2022/04/29 08:30:30;;;;;;;19.93;11.50;;;16.10;67.50;;;;;;5074919;28;20441;-66
2022/04/29 08:32:59;;;;;;;11.10;9.90;;;16.20;67.50;;;;;;5075732;28;20490;-67
2022/04/29 08:35:26;;;;;;;21.70;12.87;;;16.30;62.80;;;;;;5076017;28;20460;-67
2022/04/29 08:37:56;;;;;;;12.50;11.13;;;16.30;64.70;;;;;;5075480;28;20448;-67
2022/04/29 08:40:22;;;;;;;17.20;12.27;;;16.40;65.80;;;;;;5076122;28;20544;-67
2022/04/29 08:42:51;;;;;;;17.00;11.63;;;16.40;65.60;;;;;;5075239;28;20472;-68
2022/04/29 08:45:19;;;;;;;18.57;13.33;;;16.40;64.80;;;;;;5076463;28;20429;-68
2022/04/29 08:47:47;;;;;;;15.90;12.47;;;16.60;65.60;;;;;;5075460;28;20893;-67
2022/04/29 08:50:15;;;;;;;15.57;11.23;;;16.70;65.50;;;;;;5074383;28;20804;-67
2022/04/29 08:52:42;;;;;;;13.10;11.37;;;16.90;64.70;;;;;;5074654;28;20846;-67
2022/04/29 09:00:42;;;;;;;15.40;12.30;;;17.60;62.50;;;;;;5074888;28;20454;-67
2022/04/29 09:03:13;;;;;;;16.20;11.90;;;17.80;62.10;;;;;;5074820;28;20899;-68
2022/04/29 09:05:40;;;;;;;16.83;11.50;;;18.00;61.50;;;;;;5074452;28;20433;-67
2022/04/29 09:08:07;;;;;;;10.67;9.63;;;18.20;60.50;;;;;;5075036;28;20488;-67
2022/04/29 09:10:36;;;;;;;12.70;10.23;;;18.50;59.60;;;;;;5074990;28;20452;-68
2022/04/29 09:13:13;;;;;;;12.90;10.97;;;18.70;59.20;;;;;;5075401;28;20519;-68
2022/04/29 09:15:47;;;;;;;13.97;12.50;;;19.10;58.90;;;;;;5075105;28;20432;-68
2022/04/29 09:18:13;;;;;;;13.73;11.83;;;19.40;58.00;;;;;;5074858;28;20461;-68
2022/04/29 09:20:40;;;;;;;13.47;9.97;;;19.50;56.40;;;;;;5074627;28;20452;-68
2022/04/29 09:23:08;;;;;;;13.90;10.30;;;19.70;55.90;;;;;;5074073;28;20940;-68
2022/04/29 09:25:36;;;;;;;13.27;11.93;;;19.90;55.60;;;;;;5074703;28;20453;-68
2022/04/29 09:28:04;;;;;;;14.33;10.60;;;20.00;54.50;;;;;;5074875;28;20508;-68
2022/04/29 09:30:35;;;;;;;11.57;10.47;;;20.00;54.00;;;;;;5073971;28;20830;-68
2022/04/29 09:33:01;;;;;;;11.83;10.63;;;20.00;54.60;;;;;;5074156;28;20439;-68
2022/04/29 09:35:39;;;;;;;14.93;13.00;;;20.10;54.70;;;;;;5074107;28;20811;-68
2022/04/29 09:40:50;;;;;;;17.27;13.20;;;19.90;54.30;;;;;;5073966;28;20463;-68
2022/04/29 09:43:17;;;;;;;14.27;11.13;;;19.80;54.00;;;;;;5073902;28;20456;-68
2022/04/29 09:45:45;;;;;;;17.53;11.27;;;19.80;54.40;;;;;;5073991;28;20428;-68
2022/04/29 09:48:12;;;;;;;16.57;12.07;;;20.00;55.20;;;;;;5073574;28;20959;-68
2022/04/29 09:50:49;;;;;;;13.80;10.60;;;20.20;54.60;;;;;;5073754;28;20463;-68
2022/04/29 09:53:17;;;;;;;13.80;10.60;;;20.50;53.40;;;;;;5092501;28;20542;-68
2022/04/29 09:56:06;;;;;;;13.97;12.00;;;20.80;53.70;;;;;;5093928;28;20530;-68
2022/04/29 09:58:33;;;;;;;18.57;12.93;;;21.00;52.10;;;;;;5094086;28;20456;-68
2022/04/29 10:01:04;;;;;;;20.17;14.53;;;21.30;51.50;;;;;;5093201;28;20486;-68
2022/04/29 10:03:31;;;;;;;19.03;13.30;;;21.30;51.00;;;;;;5093961;28;20468;-68
2022/04/29 10:06:00;;;;;;;18.37;13.67;;;21.20;50.60;;;;;;5093518;28;20969;-68
2022/04/29 10:08:27;;;;;;;16.00;14.40;;;21.20;51.30;;;;;;5093384;28;20480;-68
2022/04/29 10:10:55;;;;;;;17.20;13.97;;;21.10;50.80;;;;;;5093748;28;20467;-67
2022/04/29 10:13:24;;;;;;;16.63;12.90;;;21.10;50.60;;;;;;5093632;28;20455;-68
2022/04/29 10:15:53;;;;;;;16.10;11.37;;;21.30;50.20;;;;;;5093450;28;20479;-68
2022/04/29 10:21:16;;;;;;;16.73;11.40;;;21.90;49.70;;;;;;5093471;28;20521;-68
2022/04/29 10:23:48;;;;;;;18.00;12.57;;;22.20;48.80;;;;;;5093455;28;20796;-68
2022/04/29 10:26:16;;;;;;;17.33;11.50;;;22.50;48.00;;;;;;5093423;28;20444;-67
2022/04/29 10:28:44;;;;;;;18.30;11.30;;;22.90;47.30;;;;;;5092780;28;20580;-68
2022/04/29 10:31:17;;;;;;;19.57;12.77;;;23.30;46.60;;;;;;5093296;28;20475;-68
2022/04/29 10:33:45;;;;;;;14.83;12.30;;;23.50;44.80;;;;;;5093283;28;20439;-68
2022/04/29 10:36:14;;;;;;;16.53;13.43;;;23.60;44.70;;;;;;5093249;28;20451;-68
2022/04/29 10:38:43;;;;;;;19.97;14.53;;;23.60;43.50;;;;;;5093060;28;20424;-69
2022/04/29 10:41:20;;;;;;;17.40;12.63;;;23.80;43.80;;;;;;5092837;28;21055;-68
2022/04/29 10:44:05;;;;;;;16.17;12.57;;;24.10;43.40;;;;;;5093052;28;20462;-68
2022/04/29 10:46:35;;;;;;;17.83;12.70;;;24.40;42.70;;;;;;5093248;28;20439;-68
2022/04/29 10:49:22;;;;;;;15.70;12.97;;;24.70;42.90;;;;;;5093286;28;20471;-68
2022/04/29 10:51:50;;;;;;;17.60;12.87;;;24.70;40.80;;;;;;5093247;28;20538;-68
2022/04/29 10:54:44;;;;;;;19.77;12.40;;;24.50;40.50;;;;;;5093455;28;20522;-68
2022/04/29 10:57:12;;;;;;;13.73;11.63;;;24.50;41.40;;;;;;5093109;28;20432;-68
2022/04/29 10:59:50;;;;;;;15.90;11.40;;;24.50;41.70;;;;;;5093248;28;20535;-68
2022/04/29 11:02:24;;;;;;;17.40;11.63;;;24.80;42.00;;;;;;5092736;28;21005;-68
2022/04/29 11:04:52;;;;;;;13.60;10.83;;;25.10;41.10;;;;;;5092786;28;20485;-68
2022/04/29 11:07:41;;;;;;;17.90;12.60;;;25.60;40.30;;;;;;5093401;28;20424;-68
2022/04/29 11:10:10;;;;;;;13.10;10.77;;;25.90;39.50;;;;;;5093138;28;20471;-68
2022/04/29 11:12:39;;;;;;;17.63;11.30;;;26.10;38.70;;;;;;5094968;28;20468;-67
2022/04/29 11:15:08;;;;;;;19.90;12.13;;;26.10;38.60;;;;;;5097262;28;20487;-67
2022/04/29 11:17:36;;;;;;;14.93;12.30;;;26.00;38.50;;;;;;5096920;28;20989;-68
2022/04/29 11:20:15;;;;;;;14.80;10.67;;;26.20;39.00;;;;;;5096930;28;20500;-69
2022/04/29 11:25:50;;;;;;;19.90;11.43;;;26.30;38.10;;;;;;5096691;28;20399;-68
2022/04/29 11:28:18;;;;;;;18.80;11.17;;;26.30;38.30;;;;;;5096588;28;20470;-68
2022/04/29 11:30:45;;;;;;;13.60;11.87;;;26.30;37.80;;;;;;5096484;28;20451;-68
2022/04/29 11:33:12;;;;;;;14.77;13.20;;;26.20;37.60;;;;;;5096837;28;20448;-68
2022/04/29 11:35:40;;;;;;;17.67;12.40;;;26.20;37.80;;;;;;5096194;28;20938;-68
2022/04/29 11:38:09;;;;;;;18.13;12.77;;;26.00;38.10;;;;;;5096356;28;20471;-68
2022/04/29 11:40:39;;;;;;;14.97;10.90;;;25.90;38.60;;;;;;5096521;28;20484;-68
2022/04/29 11:43:10;;;;;;;15.90;12.57;;;25.80;38.70;;;;;;5096293;28;20464;-68
2022/04/29 11:45:40;;;;;;;13.80;10.80;;;25.80;38.90;;;;;;5096332;28;20500;-68
2022/04/29 11:48:09;;;;;;;16.63;12.10;;;25.90;38.50;;;;;;5096318;28;20500;-68
2022/04/29 11:50:37;;;;;;;15.30;12.20;;;26.00;38.70;;;;;;5096537;28;20443;-68
2022/04/29 11:53:06;;;;;;;17.93;12.53;;;26.20;38.10;;;;;;5096125;28;20483;-68
2022/04/29 11:55:33;;;;;;;19.13;13.90;;;26.30;37.80;;;;;;5095715;28;20965;-68
2022/04/29 11:58:00;;;;;;;18.20;12.33;;;26.40;37.40;;;;;;5096287;28;20786;-68
2022/04/29 12:00:28;;;;;;;16.37;10.93;;;26.50;37.10;;;;;;5096074;28;20447;-68
2022/04/29 12:02:56;;;;;;;17.73;11.50;;;26.40;36.80;;;;;;5095721;28;20459;-68
2022/04/29 12:05:24;;;;;;;14.90;10.47;;;26.40;36.40;;;;;;5095916;28;20475;-68
2022/04/29 12:07:51;;;;;;;12.23;9.63;;;26.20;36.80;;;;;;5095561;28;20474;-68
2022/04/29 12:10:20;;;;;;;18.73;12.17;;;26.00;37.20;;;;;;5095807;28;20482;-68
2022/04/29 12:12:47;;;;;;;12.80;11.27;;;25.90;37.40;;;;;;5095382;28;20473;-68
2022/04/29 12:15:18;;;;;;;14.67;11.47;;;25.70;38.00;;;;;;5095612;28;20775;-68
2022/04/29 12:17:45;;;;;;;14.43;9.80;;;25.50;38.40;;;;;;5095604;28;20436;-68
2022/04/29 12:20:18;;;;;;;13.90;10.57;;;25.40;38.70;;;;;;5095369;28;20443;-67
2022/04/29 12:22:47;;;;;;;16.67;10.70;;;25.10;39.10;;;;;;5095343;28;20467;-68
2022/04/29 12:25:37;;;;;;;16.13;9.67;;;24.90;39.40;;;;;;5094750;28;20458;-68
2022/04/29 12:28:09;;;;;;;16.03;10.10;;;24.80;39.90;;;;;;5094898;28;20456;-67
2022/04/29 12:36:10;;;;;;;12.10;9.80;;;24.20;40.00;;;;;;5095323;28;20396;-68
2022/04/29 12:38:38;;;;;;;13.10;9.53;;;24.00;40.70;;;;;;5095172;28;20416;-68
2022/04/29 12:41:16;;;;;;;12.17;9.00;;;23.80;41.00;;;;;;5095011;28;20786;-68
2022/04/29 12:43:43;;;;;;;12.20;8.87;;;23.60;40.70;;;;;;5094748;28;20454;-68
2022/04/29 12:46:14;;;;;;;13.17;8.10;;;23.40;40.80;;;;;;5095019;28;20447;-68
2022/04/29 12:48:47;;;;;;;12.80;8.90;;;23.20;41.10;;;;;;5094962;28;20484;-68
2022/04/29 12:51:24;;;;;;;11.13;8.43;;;23.00;41.40;;;;;;5092302;28;20516;-68
2022/04/29 12:53:50;;;;;;;11.93;8.97;;;22.80;41.60;;;;;;5074187;28;20890;-68
2022/04/29 12:56:29;;;;;;;11.77;8.20;;;22.70;42.10;;;;;;5074549;28;20474;-68
2022/04/29 12:58:56;;;;;;;11.40;8.10;;;22.60;42.00;;;;;;5074330;28;20428;-68
2022/04/29 13:01:23;;;;;;;14.90;9.53;;;22.50;41.80;;;;;;5074494;28;20908;-68
2022/04/29 13:03:52;;;;;;;13.30;9.33;;;22.50;42.50;;;;;;5074272;28;20444;-68
2022/04/29 13:06:20;;;;;;;11.83;8.13;;;22.40;42.80;;;;;;5074591;28;20453;-67
2022/04/29 13:08:52;;;;;;;10.80;8.40;;;22.30;42.70;;;;;;5074239;28;20523;-67
2022/04/29 13:11:19;;;;;;;17.63;9.97;;;22.20;42.80;;;;;;5074106;28;20480;-68